Time;durP1;ratioP1;P1;durP2;ratioP2;P2;SDS_P1;SDS_P2;PMS_P1;PMS_P2;Temp;Humidity;BMP_temperature;BMP_pressure;BME280_temperature;BME280_humidity;BME280_pressure;Samples;Min_cycle;Max_cycle;Signal;HPM_P1;HPM_P2
2022/09/29 00:00:35;;;;;;;9.10;3.33;;;;;;;12.51;61.27;99912.38;5121563;27;20043;-60
2022/09/29 00:03:04;;;;;;;5.05;2.95;;;;;;;12.50;61.36;99910.75;5124978;27;20054;-60
2022/09/29 00:05:31;;;;;;;11.05;3.17;;;;;;;12.49;61.45;99906.41;5116612;27;20081;-60
2022/09/29 00:07:59;;;;;;;3.67;2.72;;;;;;;12.48;61.18;99907.47;5130130;27;20453;-61
2022/09/29 00:10:27;;;;;;;6.00;2.95;;;;;;;12.46;61.27;99906.94;5112260;28;20052;-61
2022/09/29 00:12:55;;;;;;;6.55;3.28;;;;;;;12.47;61.50;99913.13;5119638;27;20373;-60
2022/09/29 00:15:23;;;;;;;4.90;2.92;;;;;;;12.45;61.36;99913.38;5124939;27;20044;-60
2022/09/29 00:17:52;;;;;;;5.03;3.38;;;;;;;12.44;61.24;99913.66;5128880;27;20051;-60
2022/09/29 00:20:40;;;;;;;6.40;3.08;;;;;;;12.43;61.07;99912.03;5115560;28;20047;-60
2022/09/29 00:23:07;;;;;;;7.15;2.75;;;;;;;12.42;61.38;99908.50;5117213;27;20051;-61
2022/09/29 00:25:35;;;;;;;4.35;2.72;;;;;;;12.41;61.18;99912.28;5127786;27;20045;-60
2022/09/29 00:28:03;;;;;;;6.60;3.45;;;;;;;12.39;61.12;99904.44;5130180;27;20047;-60
2022/09/29 00:30:31;;;;;;;5.50;3.38;;;;;;;12.39;61.27;99900.94;5122996;27;20428;-60
2022/09/29 00:33:00;;;;;;;4.72;2.90;;;;;;;12.38;60.83;99907.41;5114326;27;20255;-60
2022/09/29 00:35:28;;;;;;;8.30;3.08;;;;;;;12.35;60.89;99911.41;5116095;28;20048;-60
2022/09/29 00:37:55;;;;;;;3.72;2.78;;;;;;;12.34;60.89;99909.78;5123741;27;20065;-60
2022/09/29 00:40:23;;;;;;;3.85;2.63;;;;;;;12.34;61.14;99914.38;5120906;27;20481;-61
2022/09/29 00:42:51;;;;;;;5.68;3.40;;;;;;;12.32;61.06;99906.53;5121958;27;20100;-60
2022/09/29 00:45:22;;;;;;;3.42;2.45;;;;;;;12.31;60.94;99904.91;5125650;27;20061;-60
2022/09/29 00:48:01;;;;;;;4.82;2.80;;;;;;;12.31;60.96;99907.63;5125145;28;20083;-60
2022/09/29 00:50:39;;;;;;;4.22;2.72;;;;;;;12.30;60.83;99908.69;5119586;27;20140;-60
2022/09/29 00:53:11;;;;;;;5.32;2.75;;;;;;;12.29;60.66;99907.06;5117183;27;20050;-60
2022/09/29 00:55:47;;;;;;;4.90;3.00;;;;;;;12.27;60.91;99908.38;5127509;27;20064;-60
2022/09/29 00:58:25;;;;;;;5.63;2.90;;;;;;;12.28;60.58;99899.22;5120380;27;20048;-60
2022/09/29 01:00:53;;;;;;;7.80;3.00;;;;;;;12.25;60.57;99903.25;5130968;27;20485;-60
2022/09/29 01:03:23;;;;;;;4.55;2.53;;;;;;;12.24;60.59;99904.31;5121671;27;20120;-60
2022/09/29 01:05:57;;;;;;;3.88;2.80;;;;;;;12.16;60.45;99883.22;5119285;28;20074;-60
2022/09/29 01:08:32;;;;;;;3.78;2.60;;;;;;;12.23;60.72;99905.38;5115772;28;20111;-61
2022/09/29 01:11:01;;;;;;;5.25;3.20;;;;;;;12.14;60.62;99889.94;5129690;27;20051;-60
2022/09/29 01:13:30;;;;;;;5.07;2.70;;;;;;;12.22;60.36;99900.25;5121962;27;20054;-60
2022/09/29 01:15:57;;;;;;;5.57;3.35;;;;;;;12.21;60.79;99910.22;5122539;27;20055;-60
2022/09/29 01:18:26;;;;;;;5.18;2.60;;;;;;;12.20;60.33;99897.00;5118826;27;20057;-60
2022/09/29 01:21:06;;;;;;;5.03;3.20;;;;;;;12.18;60.30;99899.94;5123414;27;20103;-60
2022/09/29 01:23:55;;;;;;;5.82;3.10;;;;;;;12.16;60.65;99902.09;5110762;27;20448;-60
2022/09/29 01:26:46;;;;;;;4.32;2.58;;;;;;;12.15;60.31;99902.34;5120452;28;20432;-61
2022/09/29 01:29:33;;;;;;;4.15;2.83;;;;;;;12.05;60.49;99887.75;5115157;28;20048;-61
2022/09/29 01:32:11;;;;;;;6.43;3.22;;;;;;;12.13;60.33;99910.72;5128488;27;20047;-60
2022/09/29 01:34:47;;;;;;;5.40;2.55;;;;;;;12.12;60.62;99905.56;5112666;28;20123;-61
2022/09/29 01:37:22;;;;;;;4.60;3.03;;;;;;;12.11;60.37;99907.47;5127030;27;20050;-60
2022/09/29 01:39:59;;;;;;;4.13;2.85;;;;;;;12.12;60.75;99905.56;5126480;28;20044;-60
2022/09/29 01:42:32;;;;;;;5.13;2.63;;;;;;;12.10;60.36;99902.31;5131991;27;20055;-60
2022/09/29 01:45:06;;;;;;;4.80;3.10;;;;;;;12.08;60.65;99904.47;5116644;28;20074;-60
2022/09/29 01:47:39;;;;;;;6.35;2.80;;;;;;;12.04;60.51;99907.66;5131864;27;20066;-60
2022/09/29 01:50:12;;;;;;;4.03;2.78;;;;;;;12.03;60.30;99907.91;5127512;27;20050;-60
2022/09/29 01:52:44;;;;;;;5.35;2.97;;;;;;;12.01;60.42;99913.56;5125701;27;20043;-61
2022/09/29 01:55:16;;;;;;;6.28;3.35;;;;;;;12.01;60.35;99912.75;5122131;27;20056;-60
2022/09/29 01:57:49;;;;;;;5.30;3.15;;;;;;;12.00;60.34;99911.13;5113923;27;20061;-60
2022/09/29 02:00:18;;;;;;;4.93;2.65;;;;;;;11.99;60.61;99906.78;5113839;27;20044;-60
2022/09/29 02:02:51;;;;;;;5.95;3.10;;;;;;;11.99;60.53;99917.56;5120111;27;20043;-60
2022/09/29 02:05:22;;;;;;;6.43;4.47;;;;;;;11.99;60.32;99917.56;5126842;27;20043;-60
2022/09/29 02:07:51;;;;;;;7.07;3.30;;;;;;;11.99;60.11;99910.31;5113272;28;20062;-61
2022/09/29 02:10:24;;;;;;;4.00;2.70;;;;;;;11.98;60.16;99908.69;5120590;27;20158;-60
2022/09/29 02:12:55;;;;;;;6.53;3.63;;;;;;;11.99;60.10;99912.19;5120297;27;20044;-60
2022/09/29 02:15:28;;;;;;;6.47;3.30;;;;;;;11.97;60.42;99908.94;5126765;27;20440;-60
2022/09/29 02:18:03;;;;;;;4.30;3.15;;;;;;;11.96;60.41;99912.69;5123748;27;20052;-60
2022/09/29 02:20:30;;;;;;;7.20;3.10;;;;;;;11.94;60.34;99907.56;5118410;28;20043;-61
2022/09/29 02:22:58;;;;;;;7.07;3.58;;;;;;;11.94;60.48;99912.13;5107799;28;20073;-60
2022/09/29 02:25:26;;;;;;;4.80;3.20;;;;;;;11.93;60.42;99914.00;5122732;28;20050;-60
2022/09/29 02:27:57;;;;;;;5.45;2.92;;;;;;;11.89;60.21;99912.88;5114476;27;20060;-60
2022/09/29 02:30:25;;;;;;;5.07;3.30;;;;;;;11.90;60.27;99911.00;5112455;28;20047;-60
2022/09/29 02:32:53;;;;;;;4.53;3.03;;;;;;;11.89;60.18;99915.59;5125978;27;20047;-60
2022/09/29 02:35:22;;;;;;;6.07;3.22;;;;;;;11.86;60.26;99908.00;5117934;27;20054;-60
2022/09/29 02:38:04;;;;;;;5.35;2.78;;;;;;;11.85;60.09;99910.94;5116886;27;20052;-60
2022/09/29 02:40:42;;;;;;;5.30;2.75;;;;;;;11.85;60.44;99914.47;5123958;27;20047;-60
2022/09/29 02:43:26;;;;;;;4.63;3.20;;;;;;;11.84;60.24;99909.31;5135944;27;20058;-60
2022/09/29 02:46:07;;;;;;;5.65;3.13;;;;;;;11.84;60.17;99906.63;5113289;27;20052;-60
2022/09/29 02:48:55;;;;;;;4.38;3.28;;;;;;;11.76;59.77;99897.09;5111396;27;20066;-60
2022/09/29 02:51:29;;;;;;;6.05;3.50;;;;;;;11.81;60.14;99909.84;5127536;27;20039;-60
2022/09/29 02:54:08;;;;;;;5.63;3.42;;;;;;;11.80;59.87;99906.34;5113451;28;20126;-61
2022/09/29 02:56:45;;;;;;;5.97;3.88;;;;;;;11.77;60.10;99904.13;5126779;27;20043;-60
2022/09/29 02:59:19;;;;;;;5.60;3.20;;;;;;;11.77;59.89;99906.00;5121558;28;20052;-60
2022/09/29 03:01:50;;;;;;;6.05;2.85;;;;;;;11.75;59.90;99908.94;5117470;27;20050;-60
2022/09/29 03:04:18;;;;;;;5.85;3.20;;;;;;;11.74;59.88;99916.19;5124574;27;20138;-60
2022/09/29 03:06:48;;;;;;;12.38;3.90;;;;;;;11.73;60.03;99917.25;5139607;27;20072;-60
2022/09/29 03:09:16;;;;;;;4.95;3.30;;;;;;;11.73;59.94;99906.50;5122154;27;20501;-60
2022/09/29 03:11:43;;;;;;;5.90;3.35;;;;;;;11.72;59.75;99922.91;5133282;27;20051;-61
2022/09/29 03:14:11;;;;;;;4.50;2.97;;;;;;;11.71;59.78;99924.78;5116773;27;20048;-60
2022/09/29 03:16:39;;;;;;;4.90;3.55;;;;;;;11.69;59.76;99913.44;5124962;27;20492;-60
2022/09/29 03:19:07;;;;;;;4.38;3.35;;;;;;;11.70;59.87;99916.94;5122221;27;20047;-60
2022/09/29 03:21:35;;;;;;;4.88;2.95;;;;;;;11.69;60.02;99912.63;5124164;27;20132;-60
2022/09/29 03:24:05;;;;;;;5.10;3.28;;;;;;;11.68;59.63;99916.38;5124407;27;20061;-60
2022/09/29 03:26:32;;;;;;;10.70;4.28;;;;;;;11.67;59.69;99918.28;5127151;27;20047;-60
2022/09/29 03:29:00;;;;;;;4.95;3.03;;;;;;;11.66;59.63;99919.34;5112613;27;20048;-60
2022/09/29 03:31:28;;;;;;;5.60;3.55;;;;;;;11.59;59.62;99912.50;5119528;28;20048;-61
2022/09/29 03:33:56;;;;;;;3.63;2.70;;;;;;;11.64;59.54;99916.06;5115980;28;20074;-60
2022/09/29 03:36:24;;;;;;;8.70;3.35;;;;;;;11.66;59.56;99915.81;5116871;28;20039;-60
2022/09/29 03:38:52;;;;;;;5.60;3.10;;;;;;;11.65;59.59;99916.91;5111819;28;20052;-60
2022/09/29 03:41:21;;;;;;;5.75;3.47;;;;;;;11.63;59.33;99911.75;5119771;28;20197;-60
2022/09/29 03:43:49;;;;;;;6.57;3.35;;;;;;;11.64;59.42;99917.97;5112129;27;20044;-61
2022/09/29 03:46:17;;;;;;;5.38;3.42;;;;;;;11.62;59.52;99914.69;5124659;28;20043;-61
2022/09/29 03:48:45;;;;;;;5.28;3.30;;;;;;;11.61;59.35;99915.78;5119309;28;20043;-60
2022/09/29 03:51:13;;;;;;;6.05;3.35;;;;;;;11.58;59.52;99916.28;5118214;28;20052;-61
2022/09/29 03:53:40;;;;;;;6.95;3.60;;;;;;;11.58;59.42;99916.28;5115625;28;20044;-61
2022/09/29 03:56:08;;;;;;;5.28;3.28;;;;;;;11.57;59.53;99920.84;5109529;28;20047;-60
2022/09/29 03:58:38;;;;;;;6.28;3.40;;;;;;;11.55;59.29;99917.59;5119057;28;20062;-60
2022/09/29 04:01:06;;;;;;;6.25;3.30;;;;;;;11.54;59.41;99921.34;5117281;28;20049;-61
2022/09/29 04:03:34;;;;;;;4.90;3.58;;;;;;;11.54;59.62;99923.22;5112866;28;20044;-60
2022/09/29 04:06:01;;;;;;;8.65;3.15;;;;;;;11.53;59.33;99927.78;5113645;28;20051;-61
2022/09/29 04:08:29;;;;;;;4.45;2.90;;;;;;;11.50;59.08;99922.91;5111300;28;20051;-60
2022/09/29 04:10:57;;;;;;;5.38;3.53;;;;;;;11.50;59.25;99927.47;5108604;28;20052;-60
2022/09/29 04:13:25;;;;;;;7.65;3.13;;;;;;;11.48;58.97;99921.53;5117795;28;20047;-60
2022/09/29 04:15:58;;;;;;;5.68;3.22;;;;;;;11.47;59.20;99936.03;5119213;28;20047;-60
2022/09/29 04:18:25;;;;;;;6.18;3.15;;;;;;;11.37;59.12;99926.78;5110981;28;20135;-60
2022/09/29 04:20:54;;;;;;;5.78;3.90;;;;;;;11.45;58.81;99935.47;5105041;28;20048;-62
2022/09/29 04:23:21;;;;;;;5.15;3.30;;;;;;;11.44;59.03;99937.34;5116508;28;20044;-60
2022/09/29 04:25:49;;;;;;;5.65;3.22;;;;;;;11.42;59.11;99936.78;5113557;28;20048;-61
2022/09/29 04:28:17;;;;;;;4.65;3.13;;;;;;;11.41;58.98;99933.28;5111245;28;20661;-61
2022/09/29 04:30:45;;;;;;;6.28;3.53;;;;;;;11.40;59.04;99936.22;5107303;28;20050;-61
2022/09/29 04:33:14;;;;;;;5.38;3.05;;;;;;;11.38;59.00;99941.84;5113431;28;20062;-62
2022/09/29 04:35:42;;;;;;;5.22;3.20;;;;;;;11.37;58.92;99940.22;5120103;28;20432;-61
2022/09/29 04:38:10;;;;;;;4.50;3.03;;;;;;;11.36;59.12;99940.47;5119622;28;20039;-61
2022/09/29 04:40:38;;;;;;;5.43;3.65;;;;;;;11.34;58.97;99940.72;5114710;28;20040;-61
2022/09/29 04:43:06;;;;;;;5.72;3.40;;;;;;;11.34;58.92;99945.28;5122810;27;20054;-61
2022/09/29 04:45:34;;;;;;;6.97;3.47;;;;;;;11.34;58.83;99953.38;5115048;28;20043;-61
2022/09/29 04:48:02;;;;;;;5.32;3.50;;;;;;;11.33;58.66;99957.94;5118126;28;20086;-61
2022/09/29 04:50:31;;;;;;;6.47;3.40;;;;;;;11.31;58.61;99951.97;5115142;27;20059;-62
2022/09/29 04:52:59;;;;;;;5.95;3.30;;;;;;;11.30;58.84;99954.91;5120147;27;20062;-61
2022/09/29 04:55:27;;;;;;;6.20;3.50;;;;;;;11.29;58.56;99954.09;5115470;28;20048;-61
2022/09/29 04:57:55;;;;;;;5.47;3.47;;;;;;;11.27;58.73;99956.22;5118663;28;20055;-61
2022/09/29 05:00:23;;;;;;;4.50;3.20;;;;;;;11.27;58.82;99958.09;5116978;27;20063;-62
2022/09/29 05:02:51;;;;;;;5.07;3.03;;;;;;;11.22;58.59;99952.66;5107968;27;20134;-61
2022/09/29 05:05:18;;;;;;;5.38;3.25;;;;;;;11.23;58.75;99957.78;5128149;27;20472;-61
2022/09/29 05:07:48;;;;;;;4.40;3.10;;;;;;;11.23;58.64;99962.34;5122238;28;20048;-60
2022/09/29 05:10:16;;;;;;;5.95;3.40;;;;;;;11.20;58.64;99963.66;5127475;28;20059;-60
2022/09/29 05:12:47;;;;;;;5.13;3.25;;;;;;;11.20;58.48;99965.53;5128209;27;20043;-62
2022/09/29 05:15:16;;;;;;;4.50;3.40;;;;;;;11.19;58.55;99962.03;5117063;27;20069;-59
2022/09/29 05:17:50;;;;;;;7.22;3.38;;;;;;;11.18;58.46;99962.28;5123852;27;20047;-60
2022/09/29 05:20:18;;;;;;;5.07;3.08;;;;;;;11.18;58.60;99967.66;5127725;27;20047;-60
2022/09/29 05:22:45;;;;;;;7.47;3.72;;;;;;;11.15;58.50;99968.97;5125400;28;20062;-60
2022/09/29 05:25:15;;;;;;;7.38;3.45;;;;;;;11.14;58.54;99972.72;5114158;28;20059;-61
2022/09/29 05:27:42;;;;;;;7.65;3.47;;;;;;;11.13;58.57;99972.97;5126755;28;20052;-61
2022/09/29 05:30:11;;;;;;;5.00;3.45;;;;;;;11.12;58.45;99982.91;4764401;27;9999831;-62
2022/09/29 05:32:39;;;;;;;4.70;3.38;;;;;;;11.11;58.37;99981.28;5109629;28;20047;-62
2022/09/29 05:35:07;;;;;;;5.57;3.47;;;;;;;11.10;58.70;99982.34;5118067;27;20054;-61
2022/09/29 05:37:35;;;;;;;5.85;3.33;;;;;;;11.08;58.54;99987.16;5113160;28;20051;-61
2022/09/29 05:40:03;;;;;;;4.68;3.00;;;;;;;11.06;58.56;99994.66;5109728;28;20151;-63
2022/09/29 05:42:32;;;;;;;5.65;3.50;;;;;;;11.04;58.60;99989.50;5112420;28;20071;-61
2022/09/29 05:45:00;;;;;;;5.57;3.70;;;;;;;11.03;58.67;99987.88;5121449;28;20053;-64
2022/09/29 05:47:28;;;;;;;5.43;4.20;;;;;;;11.03;58.59;99993.25;5122300;27;20048;-61
2022/09/29 05:49:56;;;;;;;4.50;3.25;;;;;;;11.03;58.50;99998.66;5122925;27;20058;-62
2022/09/29 05:52:23;;;;;;;4.28;3.03;;;;;;;11.02;58.65;99993.50;5113680;28;20052;-62
2022/09/29 05:54:51;;;;;;;4.90;3.05;;;;;;;11.02;58.59;100001.56;5120553;28;20142;-62
2022/09/29 05:57:19;;;;;;;4.60;3.22;;;;;;;10.99;58.64;99999.38;5121240;28;20055;-62
2022/09/29 05:59:48;;;;;;;4.88;3.10;;;;;;;10.97;58.81;99999.63;5117779;28;20544;-63
2022/09/29 06:02:17;;;;;;;7.07;3.78;;;;;;;10.97;58.64;100007.69;5120768;27;20047;-62
2022/09/29 06:04:45;;;;;;;4.93;3.38;;;;;;;10.98;58.81;100016.56;5123846;27;20070;-63
2022/09/29 06:07:13;;;;;;;6.03;3.67;;;;;;;10.95;58.82;100009.81;5122164;28;20058;-62
2022/09/29 06:09:41;;;;;;;5.20;3.53;;;;;;;10.94;58.64;100007.38;5110703;28;20059;-62
2022/09/29 06:12:09;;;;;;;7.03;3.40;;;;;;;10.92;58.86;100007.59;5122261;28;20039;-69
2022/09/29 06:14:36;;;;;;;5.03;3.25;;;;;;;10.91;58.76;100014.03;5127385;27;20135;-65
2022/09/29 06:17:06;;;;;;;5.30;3.38;;;;;;;10.93;58.94;100017.31;5132428;27;20123;-62
2022/09/29 06:19:34;;;;;;;4.63;3.17;;;;;;;10.93;58.97;100019.19;5123251;28;20093;-63
2022/09/29 06:22:02;;;;;;;5.03;3.58;;;;;;;10.92;58.72;100018.38;5116332;28;20058;-63
2022/09/29 06:24:30;;;;;;;6.78;3.40;;;;;;;10.92;59.03;100025.63;5114165;28;20043;-63
2022/09/29 06:26:58;;;;;;;5.20;3.25;;;;;;;10.90;59.03;100022.34;5124933;28;20053;-63
2022/09/29 06:29:26;;;;;;;4.25;3.03;;;;;;;10.89;59.14;100023.41;5122447;28;20143;-63
2022/09/29 06:31:54;;;;;;;5.68;3.67;;;;;;;10.91;58.86;100022.09;5123809;28;20043;-63
2022/09/29 06:34:23;;;;;;;7.32;3.58;;;;;;;10.89;59.18;100026.09;5127470;27;20111;-62
2022/09/29 06:39:38;;;;;;;5.88;3.83;;;;;;;10.90;59.30;100033.09;5127861;27;20054;-62
2022/09/29 06:42:06;;;;;;;6.28;3.70;;;;;;;10.89;59.35;100026.09;5120045;27;20504;-63
2022/09/29 06:44:33;;;;;;;4.95;3.42;;;;;;;10.90;59.47;100036.59;5126431;27;20044;-63
2022/09/29 06:47:01;;;;;;;6.78;3.75;;;;;;;10.83;59.54;100030.56;5123835;27;20047;-62
2022/09/29 06:49:30;;;;;;;6.15;3.90;;;;;;;10.88;59.47;100040.59;5130352;27;20103;-62
2022/09/29 06:51:58;;;;;;;7.93;3.92;;;;;;;10.87;59.61;100045.16;5124713;27;20449;-62
2022/09/29 06:54:29;;;;;;;4.95;3.67;;;;;;;10.90;59.63;100052.75;5109541;27;20080;-61
2022/09/29 06:56:57;;;;;;;7.63;3.63;;;;;;;10.90;59.61;100046.53;5123274;28;20576;-61
2022/09/29 06:59:25;;;;;;;7.82;4.32;;;;;;;10.90;59.88;100041.97;5122258;27;20111;-61
2022/09/29 07:01:53;;;;;;;7.55;3.72;;;;;;;10.92;59.68;100044.44;5121502;28;20043;-62
2022/09/29 07:04:21;;;;;;;7.13;4.50;;;;;;;10.92;59.69;100052.50;5122398;28;20055;-60
2022/09/29 07:06:51;;;;;;;7.10;4.13;;;;;;;10.94;59.72;100045.81;5122209;28;20493;-60
2022/09/29 07:09:20;;;;;;;6.90;4.07;;;;;;;10.95;59.73;100054.69;5121451;28;20572;-61
2022/09/29 07:11:49;;;;;;;8.60;4.05;;;;;;;10.95;59.82;100052.00;5118846;28;20054;-60
2022/09/29 07:14:21;;;;;;;8.60;4.28;;;;;;;10.95;59.74;100050.13;5123788;28;20062;-59
2022/09/29 07:16:50;;;;;;;4.95;3.72;;;;;;;10.97;59.82;100057.97;5120144;28;20126;-61
2022/09/29 07:19:18;;;;;;;6.32;3.85;;;;;;;10.95;59.88;100058.19;5120089;28;20499;-61
2022/09/29 07:21:47;;;;;;;7.15;4.28;;;;;;;10.96;59.86;100061.69;5118620;28;20044;-60
2022/09/29 07:24:17;;;;;;;7.40;4.43;;;;;;;10.97;59.87;100066.03;5120846;28;20048;-61
2022/09/29 07:26:44;;;;;;;5.85;3.65;;;;;;;10.96;59.94;100067.91;5120683;28;20057;-61
2022/09/29 07:29:13;;;;;;;8.70;4.43;;;;;;;10.97;59.99;100072.22;5119784;28;20039;-61
2022/09/29 07:31:44;;;;;;;5.57;4.00;;;;;;;11.00;59.93;100077.09;5122550;28;20044;-62
2022/09/29 07:34:19;;;;;;;7.45;4.20;;;;;;;11.00;60.14;100079.78;5121409;28;20051;-59
2022/09/29 07:36:47;;;;;;;8.38;4.75;;;;;;;11.01;59.84;100080.59;5122613;28;20049;-61
2022/09/29 07:39:16;;;;;;;7.07;4.40;;;;;;;11.00;60.11;100082.47;5120657;28;20061;-59
2022/09/29 07:41:44;;;;;;;4.75;3.60;;;;;;;11.00;60.17;100087.03;5119107;28;20051;-59
2022/09/29 07:44:12;;;;;;;7.93;4.22;;;;;;;10.99;60.17;100085.41;5122186;28;20061;-59
2022/09/29 07:46:40;;;;;;;6.05;4.13;;;;;;;11.01;60.36;100086.81;5121551;28;20043;-60
2022/09/29 07:49:08;;;;;;;6.88;3.88;;;;;;;11.10;60.19;100087.22;5122043;28;20043;-58
2022/09/29 07:51:36;;;;;;;7.95;4.03;;;;;;;11.21;59.85;100085.50;5119664;28;20352;-59
2022/09/29 07:54:04;;;;;;;6.65;3.95;;;;;;;11.34;59.56;100094.06;5123369;28;20055;-59
2022/09/29 07:56:34;;;;;;;6.18;4.30;;;;;;;11.54;58.95;100096.25;5123982;28;20048;-60
2022/09/29 07:59:03;;;;;;;5.97;3.88;;;;;;;11.72;58.39;100100.56;5116872;28;20135;-59
2022/09/29 08:01:31;;;;;;;4.85;3.60;;;;;;;11.88;58.16;100101.59;5125707;28;20051;-59
2022/09/29 08:03:59;;;;;;;8.68;4.22;;;;;;;12.02;57.71;100100.19;5119852;28;20089;-63
2022/09/29 08:06:27;;;;;;;11.10;4.35;;;;;;;12.17;57.32;100102.22;5120423;28;20044;-59
2022/09/29 08:08:55;;;;;;;7.97;4.00;;;;;;;12.30;56.98;100107.25;5113213;28;20048;-59
2022/09/29 08:11:34;;;;;;;6.47;4.32;;;;;;;12.42;57.06;100105.22;5120705;28;20100;-59
2022/09/29 08:14:02;;;;;;;6.22;4.03;;;;;;;12.54;56.63;100110.47;5122484;28;20039;-59
2022/09/29 08:16:30;;;;;;;12.27;4.38;;;;;;;12.58;56.29;100115.13;5124885;28;20134;-59
2022/09/29 08:18:59;;;;;;;7.60;4.25;;;;;;;12.50;57.02;100115.56;5126719;28;20429;-59
2022/09/29 08:21:28;;;;;;;7.13;4.68;;;;;;;12.41;57.10;100117.06;5118569;27;20047;-59
2022/09/29 08:23:56;;;;;;;9.32;4.45;;;;;;;12.26;58.05;100117.69;5133438;27;20040;-61
2022/09/29 08:26:24;;;;;;;7.10;3.75;;;;;;;12.17;58.11;100127.28;5125360;28;20496;-62
2022/09/29 08:29:09;;;;;;;7.72;3.75;;;;;;;12.08;58.39;100128.81;5121267;28;20051;-60
2022/09/29 08:31:43;;;;;;;6.47;3.97;;;;;;;12.01;58.62;100134.38;5126492;28;20055;-59
2022/09/29 08:34:12;;;;;;;6.97;3.95;;;;;;;11.95;59.01;100129.19;5126861;27;20066;-60
2022/09/29 08:36:40;;;;;;;5.97;3.85;;;;;;;11.89;59.27;100130.16;5124886;28;20044;-60
2022/09/29 08:39:11;;;;;;;6.03;3.63;;;;;;;11.81;59.42;100134.09;5123426;28;20047;-60
2022/09/29 08:41:51;;;;;;;10.02;4.30;;;;;;;11.76;59.81;100131.31;5126435;28;20078;-60
2022/09/29 08:44:33;;;;;;;7.30;4.68;;;;;;;11.72;60.05;100135.53;5127227;27;20431;-60
2022/09/29 08:47:17;;;;;;;7.55;4.88;;;;;;;11.68;60.19;100145.19;5126752;27;20124;-60
2022/09/29 08:49:49;;;;;;;6.88;3.90;;;;;;;11.66;60.60;100133.84;5124261;28;20105;-60
2022/09/29 08:52:21;;;;;;;7.10;4.28;;;;;;;11.60;61.10;100141.03;5127030;28;20052;-60
2022/09/29 08:54:53;;;;;;;7.15;4.40;;;;;;;11.59;61.18;100141.25;5122886;27;20136;-60
2022/09/29 08:57:21;;;;;;;7.72;5.30;;;;;;;11.59;61.35;100135.88;4761798;28;9999999;-61
2022/09/29 08:59:54;;;;;;;9.38;4.60;;;;;;;11.60;61.52;100149.09;5118481;27;20051;-60
2022/09/29 09:02:57;;;;;;;8.02;4.20;;;;;;;11.60;61.33;100145.59;5124427;27;20048;-60
2022/09/29 09:05:43;;;;;;;5.88;3.55;;;;;;;11.61;61.15;100152.59;5107656;27;20075;-59
2022/09/29 09:08:22;;;;;;;9.45;4.50;;;;;;;11.60;61.54;100157.16;5121768;28;20085;-59
2022/09/29 09:11:00;;;;;;;9.20;4.47;;;;;;;11.60;61.81;100159.84;5119401;27;20054;-59
2022/09/29 09:13:49;;;;;;;6.10;3.67;;;;;;;11.60;61.99;100159.03;5121170;28;20051;-59
2022/09/29 09:16:33;;;;;;;10.18;4.22;;;;;;;11.60;61.90;100157.16;5121806;28;20574;-59
2022/09/29 09:19:31;;;;;;;6.10;3.60;;;;;;;11.62;62.06;100157.75;5116169;28;20060;-60
2022/09/29 09:22:06;;;;;;;7.30;4.53;;;;;;;11.62;62.38;100163.13;5122678;28;20061;-60
2022/09/29 09:24:42;;;;;;;13.15;4.50;;;;;;;11.63;62.50;100163.94;5123368;27;20066;-59
2022/09/29 09:27:15;;;;;;;8.38;4.00;;;;;;;11.64;62.37;100157.50;5120102;28;20365;-59
2022/09/29 09:29:44;;;;;;;6.88;3.70;;;;;;;11.66;62.57;100166.94;5117654;28;20115;-59
2022/09/29 09:32:20;;;;;;;8.10;3.75;;;;;;;11.67;62.54;100160.50;5118520;28;20123;-60
2022/09/29 09:34:56;;;;;;;7.97;4.05;;;;;;;11.72;62.93;100157.09;5118889;27;20083;-59
2022/09/29 09:37:36;;;;;;;7.35;4.07;;;;;;;11.73;62.76;100159.53;5121295;28;20048;-60
2022/09/29 09:40:13;;;;;;;7.68;4.32;;;;;;;11.77;62.58;100161.72;5116005;28;20047;-60
2022/09/29 09:42:45;;;;;;;8.43;3.70;;;;;;;11.77;62.84;100167.97;5118278;28;20126;-60
2022/09/29 09:45:22;;;;;;;7.07;4.15;;;;;;;11.78;62.89;100169.59;5115561;27;20058;-61
2022/09/29 09:47:57;;;;;;;6.22;3.70;;;;;;;11.80;62.95;100169.34;5120918;28;20495;-60
2022/09/29 09:50:25;;;;;;;5.93;4.00;;;;;;;11.79;63.39;100168.53;5118460;27;20047;-59
2022/09/29 09:52:57;;;;;;;6.47;4.43;;;;;;;11.85;63.85;100169.41;5122706;28;20318;-60
2022/09/29 09:55:26;;;;;;;7.10;4.82;;;;;;;11.78;63.78;100153.44;5120765;27;20052;-59
2022/09/29 09:58:18;;;;;;;7.57;3.70;;;;;;;11.88;63.78;100166.22;5129079;27;20385;-60
2022/09/29 10:00:50;;;;;;;7.70;4.22;;;;;;;11.87;63.78;100162.72;5114964;28;20048;-60
2022/09/29 10:03:19;;;;;;;11.15;5.38;;;;;;;11.92;64.04;100173.56;5122411;28;20466;-61
2022/09/29 10:05:49;;;;;;;6.80;3.95;;;;;;;11.97;64.40;100180.91;5113183;27;20139;-60
2022/09/29 10:08:23;;;;;;;7.07;3.42;;;;;;;11.98;64.55;100174.47;5118842;27;20057;-61
2022/09/29 10:10:51;;;;;;;5.32;3.40;;;;;;;12.00;64.38;100169.63;5122998;27;20059;-61
2022/09/29 10:13:27;;;;;;;5.95;3.40;;;;;;;12.04;64.43;100178.84;5129043;27;20058;-60
2022/09/29 10:16:00;;;;;;;7.65;3.15;;;;;;;12.09;64.28;100175.41;5121285;27;20052;-61
2022/09/29 10:18:37;;;;;;;7.45;3.50;;;;;;;12.11;64.47;100192.16;5120342;28;20055;-61
2022/09/29 10:21:19;;;;;;;;;;;;;;;12.13;64.33;100184.63;5116536;28;20501;-61
2022/09/29 10:23:51;;;;;;;7.78;3.08;;;;;;;12.15;64.29;100182.47;5121650;28;19923;-61
2022/09/29 10:26:24;;;;;;;6.18;3.28;;;;;;;12.18;64.14;100179.28;5118401;28;20082;-61
2022/09/29 10:28:55;;;;;;;5.10;3.05;;;;;;;12.20;64.40;100180.66;5119488;28;20058;-61
2022/09/29 10:31:26;;;;;;;6.93;2.97;;;;;;;12.23;64.18;100184.75;5118098;28;20065;-61
2022/09/29 10:33:58;;;;;;;4.80;3.03;;;;;;;12.26;64.39;100181.56;5122060;28;20054;-61
2022/09/29 10:36:29;;;;;;;9.30;3.13;;;;;;;12.30;64.32;100188.06;5111808;28;20044;-61
2022/09/29 10:38:57;;;;;;;6.07;3.45;;;;;;;12.33;64.53;100192.97;5116817;28;20044;-61
2022/09/29 10:41:30;;;;;;;5.15;2.85;;;;;;;12.34;64.37;100187.31;5114035;28;20062;-61
2022/09/29 10:44:19;;;;;;;6.63;2.95;;;;;;;12.38;64.62;100190.34;5115766;28;20527;-61
2022/09/29 10:46:50;;;;;;;7.82;2.50;;;;;;;12.41;64.64;100189.84;5111620;28;20043;-61
2022/09/29 10:49:22;;;;;;;8.27;3.10;;;;;;;12.44;64.40;100186.63;5108823;28;20512;-61
2022/09/29 10:51:59;;;;;;;3.85;2.80;;;;;;;12.46;63.86;100184.50;5115950;27;20135;-61
2022/09/29 10:54:29;;;;;;;6.55;3.13;;;;;;;12.48;63.77;100178.88;5107977;28;20048;-60
2022/09/29 10:56:58;;;;;;;6.30;3.20;;;;;;;12.49;63.80;100188.59;5109642;27;20052;-61
2022/09/29 10:59:27;;;;;;;5.18;3.08;;;;;;;12.50;63.83;100196.41;5113165;27;20048;-61
2022/09/29 11:01:59;;;;;;;5.35;2.70;;;;;;;12.45;63.46;100190.16;5122399;27;20114;-61
2022/09/29 11:04:33;;;;;;;5.25;2.30;;;;;;;12.53;63.57;100193.22;5115584;28;20052;-61
2022/09/29 11:07:07;;;;;;;5.40;2.60;;;;;;;12.57;63.80;100196.22;5111690;28;20063;-61
2022/09/29 11:09:40;;;;;;;4.22;2.28;;;;;;;12.60;63.52;100199.25;5108437;28;20068;-60
2022/09/29 11:12:27;;;;;;;3.60;2.03;;;;;;;12.64;63.77;100197.69;5107838;28;20108;-60
2022/09/29 11:14:55;;;;;;;4.22;2.10;;;;;;;12.67;63.81;100197.19;5108179;28;20050;-60
2022/09/29 11:17:25;;;;;;;3.20;2.20;;;;;;;12.71;63.85;100198.31;5110087;27;20056;-61
2022/09/29 11:19:56;;;;;;;7.70;3.30;;;;;;;12.71;63.58;100194.78;5116556;27;20061;-60
2022/09/29 11:23:10;;;;;;;4.93;2.20;;;;;;;12.77;63.48;100199.19;5112094;28;20056;-61
2022/09/29 11:26:01;;;;;;;4.30;2.28;;;;;;;12.79;63.66;100199.75;5103054;28;20058;-61
2022/09/29 11:28:54;;;;;;;3.83;1.98;;;;;;;12.81;63.91;100197.59;5118959;27;20043;-60
2022/09/29 11:31:39;;;;;;;4.13;1.83;;;;;;;12.84;63.89;100197.09;5118322;28;20039;-62
2022/09/29 11:34:36;;;;;;;4.20;2.25;;;;;;;12.87;63.75;100204.69;5115624;28;20036;-60
2022/09/29 11:37:17;;;;;;;3.90;2.38;;;;;;;12.83;63.71;100192.78;5120091;28;20058;-60
2022/09/29 11:39:49;;;;;;;3.15;1.70;;;;;;;12.92;63.75;100202.03;5113705;28;20051;-60
2022/09/29 11:42:30;;;;;;;3.55;1.75;;;;;;;12.96;63.47;100205.06;5117639;28;20521;-61
2022/09/29 11:44:59;;;;;;;5.13;1.70;;;;;;;12.98;63.97;100202.91;5120159;28;20051;-61
2022/09/29 11:48:06;;;;;;;3.28;1.77;;;;;;;13.01;64.35;100208.63;5123564;28;20043;-60
2022/09/29 11:50:45;;;;;;;3.40;1.70;;;;;;;13.03;63.99;100203.78;5128074;27;20053;-60
2022/09/29 11:53:26;;;;;;;1.73;1.33;;;;;;;13.08;63.91;100205.72;5119445;28;20059;-60